createdAt,value
2023-03-17T00:01:58.297Z,95.41
2023-03-17T00:04:27.414Z,96.00
2023-03-17T00:06:55.165Z,96.00
2023-03-17T00:09:22.648Z,96.81
2023-03-17T00:11:50.210Z,97.10
2023-03-17T00:14:18.145Z,97.94
2023-03-17T00:16:52.721Z,97.33
2023-03-17T00:19:29.972Z,97.53
2023-03-17T00:21:59.143Z,97.76
2023-03-17T00:24:26.132Z,97.47
2023-03-17T00:26:53.398Z,98.12
2023-03-17T00:29:20.537Z,97.09
2023-03-17T00:31:47.269Z,96.43
2023-03-17T00:34:18.992Z,94.86
2023-03-17T00:36:51.162Z,96.09
2023-03-17T00:39:18.807Z,96.20
2023-03-17T00:44:12.976Z,96.20
2023-03-17T00:46:41.901Z,97.15
2023-03-17T00:49:23.563Z,97.00
2023-03-17T00:51:51.157Z,98.24
2023-03-17T00:54:20.795Z,97.70
2023-03-17T00:56:49.753Z,97.27
2023-03-17T00:59:26.556Z,96.63
2023-03-17T01:01:53.827Z,96.12
2023-03-17T01:04:20.675Z,96.10
2023-03-17T01:06:49.732Z,95.35
2023-03-17T01:09:18.653Z,95.28
2023-03-17T01:11:45.738Z,96.26
2023-03-17T01:14:13.317Z,97.03
2023-03-17T01:16:40.924Z,96.70
2023-03-17T01:19:10.184Z,95.86
2023-03-17T01:21:36.907Z,95.98
2023-03-17T01:24:04.497Z,95.88
2023-03-17T01:26:31.641Z,96.37
2023-03-17T01:28:59.164Z,95.69
2023-03-17T01:31:26.459Z,95.68
2023-03-17T01:33:53.370Z,96.54
2023-03-17T01:36:20.775Z,96.05
2023-03-17T01:38:51.062Z,97.27
2023-03-17T01:41:20.968Z,97.60
2023-03-17T01:43:47.790Z,97.33
2023-03-17T01:46:30.176Z,96.55
2023-03-17T01:49:31.779Z,97.89
2023-03-17T01:52:18.290Z,97.82
2023-03-17T01:54:50.760Z,97.26
2023-03-17T01:57:28.772Z,99.28
2023-03-17T02:00:20.960Z,99.02
2023-03-17T02:02:51.216Z,98.59
2023-03-17T02:05:26.048Z,98.76
2023-03-17T02:07:54.496Z,98.54
2023-03-17T02:10:24.236Z,98.01
2023-03-17T02:13:01.351Z,98.90
2023-03-17T02:15:48.507Z,98.22
2023-03-17T02:18:18.546Z,97.54
2023-03-17T02:20:48.084Z,98.12
2023-03-17T02:23:25.787Z,97.59
2023-03-17T02:25:54.096Z,97.08
2023-03-17T02:28:27.214Z,96.09
2023-03-17T02:30:54.038Z,97.31
2023-03-17T02:33:21.041Z,97.72
2023-03-17T02:35:47.958Z,97.47
2023-03-17T02:38:14.746Z,96.99
2023-03-17T02:40:41.656Z,96.80
2023-03-17T02:43:09.007Z,97.06
2023-03-17T02:45:36.840Z,97.92
2023-03-17T02:48:04.117Z,98.63
2023-03-17T02:50:31.780Z,98.73
2023-03-17T02:52:58.697Z,98.20
2023-03-17T02:55:27.080Z,98.68
2023-03-17T02:57:53.846Z,98.45
2023-03-17T03:00:21.666Z,98.35
2023-03-17T03:02:48.516Z,98.74
2023-03-17T03:05:15.269Z,98.57
2023-03-17T03:07:42.487Z,99.15
2023-03-17T03:10:10.585Z,99.32
2023-03-17T03:12:37.332Z,99.09
2023-03-17T03:15:05.597Z,98.79
2023-03-17T03:17:32.394Z,98.32
2023-03-17T03:19:59.317Z,98.57
2023-03-17T03:22:26.117Z,98.41
2023-03-17T03:24:52.969Z,98.28
2023-03-17T03:27:19.697Z,98.00
2023-03-17T03:29:46.463Z,97.84
2023-03-17T03:32:13.499Z,98.42
2023-03-17T03:34:40.233Z,98.05
2023-03-17T03:37:08.251Z,97.92
2023-03-17T03:39:35.000Z,98.34
2023-03-17T03:42:01.868Z,98.09
2023-03-17T03:44:28.602Z,99.28
2023-03-17T03:46:55.388Z,98.52
2023-03-17T03:49:22.751Z,98.30
2023-03-17T03:51:49.491Z,99.88
2023-03-17T03:54:16.274Z,99.02
2023-03-17T03:56:43.004Z,98.28
2023-03-17T03:59:10.072Z,99.31
2023-03-17T04:01:36.807Z,99.31
2023-03-17T04:04:03.660Z,99.55
2023-03-17T04:06:30.388Z,99.02
2023-03-17T04:08:58.303Z,100.00
2023-03-17T04:11:25.299Z,99.41
2023-03-17T04:13:52.215Z,98.84
2023-03-17T04:16:19.046Z,99.05
2023-03-17T04:18:46.099Z,98.39
2023-03-17T04:21:13.876Z,98.76
2023-03-17T04:23:40.641Z,98.86
2023-03-17T04:26:07.599Z,98.50
2023-03-17T04:28:34.725Z,98.52
2023-03-17T04:31:01.581Z,99.35
2023-03-17T04:33:28.854Z,99.57
2023-03-17T04:35:56.171Z,99.23
2023-03-17T04:38:23.005Z,98.12
2023-03-17T04:40:51.887Z,97.72
2023-03-17T04:43:18.624Z,97.63
2023-03-17T04:45:45.373Z,97.13
2023-03-17T04:48:12.105Z,97.15
2023-03-17T04:50:39.214Z,97.94
2023-03-17T04:53:06.865Z,98.08
2023-03-17T04:55:33.702Z,97.54
2023-03-17T04:58:00.781Z,97.53
2023-03-17T05:00:28.199Z,97.29
2023-03-17T05:02:55.052Z,97.88
2023-03-17T05:05:21.787Z,98.31
2023-03-17T05:07:48.655Z,99.71
2023-03-17T05:10:15.478Z,99.23
2023-03-17T05:12:42.234Z,99.08
2023-03-17T05:15:10.118Z,97.93
2023-03-17T05:17:36.939Z,98.30
2023-03-17T05:20:04.481Z,98.10
2023-03-17T05:22:31.691Z,98.82
2023-03-17T05:24:58.989Z,99.27
2023-03-17T05:27:27.115Z,100.00
2023-03-17T05:29:53.894Z,100.00
2023-03-17T05:32:21.060Z,99.55
2023-03-17T05:34:48.405Z,99.67
2023-03-17T05:37:15.778Z,99.40
2023-03-17T05:39:42.560Z,98.35
2023-03-17T05:42:09.692Z,97.95
2023-03-17T05:44:36.529Z,98.43
2023-03-17T05:47:03.302Z,99.29
2023-03-17T05:49:30.120Z,99.02
2023-03-17T05:51:57.029Z,98.62
2023-03-17T05:54:24.304Z,98.30
2023-03-17T05:56:51.094Z,99.00
2023-03-17T05:59:18.595Z,99.84
2023-03-17T06:01:45.630Z,100.00
2023-03-17T06:04:12.796Z,100.00
2023-03-17T06:06:40.074Z,100.00
2023-03-17T06:09:07.071Z,100.00
2023-03-17T06:11:33.871Z,100.00
2023-03-17T06:14:00.768Z,100.00
2023-03-17T06:16:30.630Z,100.00
2023-03-17T06:18:57.482Z,100.00
2023-03-17T06:21:24.415Z,100.00
2023-03-17T06:23:51.267Z,100.00
2023-03-17T06:26:18.026Z,100.00
2023-03-17T06:28:44.779Z,100.00
2023-03-17T06:31:12.125Z,100.00
2023-03-17T06:33:39.024Z,100.00
2023-03-17T06:36:06.598Z,100.00
2023-03-17T06:38:33.467Z,100.00
2023-03-17T06:41:00.208Z,100.00
2023-03-17T06:43:27.315Z,100.00
2023-03-17T06:45:54.113Z,100.00
2023-03-17T06:48:20.887Z,99.83
2023-03-17T06:50:47.854Z,99.91
2023-03-17T06:53:14.695Z,99.70
2023-03-17T06:55:42.160Z,99.96
2023-03-17T06:58:10.710Z,99.87
2023-03-17T07:00:40.121Z,99.53
2023-03-17T07:03:06.993Z,100.00
2023-03-17T07:05:34.129Z,99.77
2023-03-17T07:08:01.108Z,99.05
2023-03-17T07:10:28.241Z,99.06
2023-03-17T07:12:55.170Z,99.66
2023-03-17T07:15:22.143Z,100.00
2023-03-17T07:17:48.845Z,100.00
2023-03-17T07:20:15.629Z,99.92
2023-03-17T07:22:42.960Z,100.00
2023-03-17T07:25:10.182Z,100.00
2023-03-17T07:27:37.072Z,100.00
2023-03-17T07:30:05.252Z,99.80
2023-03-17T07:32:32.972Z,100.00
2023-03-17T07:34:59.802Z,100.00
2023-03-17T07:37:26.802Z,100.00
2023-03-17T07:39:53.520Z,100.00
2023-03-17T07:42:20.359Z,100.00
2023-03-17T07:44:47.115Z,100.00
2023-03-17T07:47:14.844Z,100.00
2023-03-17T07:49:42.500Z,100.00
2023-03-17T07:52:10.685Z,100.00
2023-03-17T07:54:38.091Z,99.86
2023-03-17T07:57:07.792Z,99.74
2023-03-17T07:59:34.897Z,99.44
2023-03-17T08:02:01.953Z,98.84
2023-03-17T08:04:29.028Z,99.30
2023-03-17T08:06:55.938Z,99.25
2023-03-17T08:09:23.244Z,98.25
2023-03-17T08:11:50.104Z,96.44
2023-03-17T08:14:16.927Z,96.52
2023-03-17T08:16:43.726Z,96.27
2023-03-17T08:19:11.165Z,96.22
2023-03-17T08:21:37.998Z,95.51
2023-03-17T08:24:05.446Z,95.66
2023-03-17T08:26:32.664Z,94.86
2023-03-17T08:28:59.687Z,94.28
2023-03-17T08:31:26.583Z,92.29
2023-03-17T08:33:57.121Z,90.58
2023-03-17T08:36:24.464Z,88.30
2023-03-17T08:38:51.242Z,85.69
2023-03-17T08:41:22.275Z,82.55
2023-03-17T08:43:49.245Z,82.22
2023-03-17T08:46:30.959Z,82.60
2023-03-17T08:48:59.741Z,81.18
2023-03-17T08:51:30.880Z,80.18
2023-03-17T08:53:58.841Z,78.69
2023-03-17T08:56:26.133Z,77.45
2023-03-17T08:58:53.141Z,75.38
2023-03-17T09:01:21.368Z,75.67
2023-03-17T09:03:49.678Z,75.46
2023-03-17T09:06:16.686Z,74.21
2023-03-17T09:08:45.235Z,72.31
2023-03-17T09:11:16.780Z,70.90
2023-03-17T09:13:44.386Z,70.54
2023-03-17T09:16:11.212Z,68.77
2023-03-17T09:18:38.145Z,68.65
2023-03-17T09:21:05.965Z,68.20
2023-03-17T09:23:33.710Z,66.74
2023-03-17T09:26:02.030Z,66.36
2023-03-17T09:28:29.325Z,68.66
2023-03-17T09:31:06.315Z,66.74
2023-03-17T09:33:33.477Z,66.24
2023-03-17T09:36:00.340Z,63.54
2023-03-17T09:38:28.108Z,63.64
2023-03-17T09:41:23.997Z,60.12
2023-03-17T09:44:21.925Z,61.42
2023-03-17T09:47:22.746Z,61.17
2023-03-17T09:49:59.040Z,59.04
2023-03-17T09:52:30.628Z,60.26
2023-03-17T09:54:58.441Z,57.82
2023-03-17T09:57:39.769Z,57.08
2023-03-17T10:00:18.279Z,56.49
2023-03-17T10:02:46.308Z,55.75
2023-03-17T10:05:22.029Z,54.68
2023-03-17T10:08:29.399Z,55.25
2023-03-17T10:11:29.504Z,55.25
2023-03-17T10:14:14.578Z,53.56
2023-03-17T10:16:54.000Z,52.72
2023-03-17T10:19:40.560Z,54.98
2023-03-17T10:22:19.626Z,54.10
2023-03-17T10:24:58.574Z,53.42
2023-03-17T10:27:27.457Z,52.53
2023-03-17T10:29:54.172Z,52.53
2023-03-17T10:32:20.954Z,52.16
2023-03-17T10:34:48.910Z,51.32
2023-03-17T10:37:21.635Z,51.23
2023-03-17T10:39:57.480Z,49.69
2023-03-17T10:42:33.201Z,49.77
2023-03-17T10:45:28.015Z,49.83
2023-03-17T10:47:57.876Z,49.31
2023-03-17T10:50:35.496Z,49.03
2023-03-17T10:53:19.355Z,48.65
2023-03-17T10:56:10.483Z,48.21
2023-03-17T10:58:49.930Z,48.08
2023-03-17T11:01:40.145Z,47.25
2023-03-17T11:04:42.638Z,47.65
2023-03-17T11:07:31.442Z,46.39
2023-03-17T11:10:02.778Z,45.49
2023-03-17T11:12:38.420Z,44.70
2023-03-17T11:15:14.248Z,44.50
2023-03-17T11:17:58.829Z,44.18
2023-03-17T11:21:16.224Z,44.33
2023-03-17T11:23:52.331Z,44.98
2023-03-17T11:26:37.414Z,44.92
2023-03-17T11:29:29.561Z,43.50
2023-03-17T11:32:32.685Z,44.59
2023-03-17T11:35:24.674Z,44.87
2023-03-17T11:38:16.884Z,44.78
2023-03-17T11:41:09.283Z,41.98
2023-03-17T11:43:46.789Z,43.39
2023-03-17T11:46:21.160Z,42.61
2023-03-17T11:49:22.359Z,42.31
2023-03-17T11:52:28.608Z,41.80
2023-03-17T11:55:09.141Z,41.21
2023-03-17T11:58:01.737Z,41.38
2023-03-17T12:00:34.914Z,41.09
2023-03-17T12:03:09.052Z,41.07
2023-03-17T12:05:37.372Z,41.78
2023-03-17T12:08:19.594Z,40.57
2023-03-17T12:10:54.745Z,39.62
2023-03-17T12:13:39.891Z,38.66
2023-03-17T12:16:35.888Z,38.57
2023-03-17T12:19:21.448Z,38.98
2023-03-17T12:22:01.510Z,37.28
2023-03-17T12:24:59.631Z,35.80
2023-03-17T12:27:48.545Z,35.34
2023-03-17T12:31:16.028Z,36.42
2023-03-17T12:34:29.142Z,35.70
2023-03-17T12:36:56.206Z,35.69
2023-03-17T12:39:32.512Z,35.22
2023-03-17T12:42:28.882Z,35.58
2023-03-17T12:45:56.995Z,35.91
2023-03-17T12:48:48.503Z,35.14
2023-03-17T12:51:50.181Z,35.36
2023-03-17T12:54:36.596Z,34.26
2023-03-17T12:57:14.724Z,35.15
2023-03-17T12:59:47.598Z,36.02
2023-03-17T13:02:28.006Z,35.74
2023-03-17T13:05:03.168Z,34.71
2023-03-17T13:07:49.218Z,35.44
2023-03-17T13:10:40.093Z,34.15
2023-03-17T13:13:14.274Z,35.68
2023-03-17T13:15:40.955Z,35.25
2023-03-17T13:18:17.452Z,34.86
2023-03-17T13:20:56.386Z,35.42
2023-03-17T13:23:55.400Z,35.66
2023-03-17T13:26:56.494Z,35.24
2023-03-17T13:29:45.702Z,34.75
2023-03-17T13:32:24.877Z,34.61
2023-03-17T13:35:19.014Z,34.75
2023-03-17T13:38:00.339Z,33.72
2023-03-17T13:40:50.150Z,33.96
2023-03-17T13:43:22.730Z,34.23
2023-03-17T13:45:49.897Z,34.16
2023-03-17T13:48:36.126Z,32.99
2023-03-17T13:51:14.525Z,32.65
2023-03-17T13:53:45.931Z,31.82
2023-03-17T13:56:29.856Z,32.49
2023-03-17T13:59:13.624Z,33.16
2023-03-17T14:01:47.240Z,34.05
2023-03-17T14:04:22.225Z,32.63
2023-03-17T14:06:52.131Z,33.29
2023-03-17T14:09:34.770Z,33.65
2023-03-17T14:12:26.434Z,33.14
2023-03-17T14:14:59.109Z,33.23
2023-03-17T14:17:30.571Z,33.30
2023-03-17T14:20:18.596Z,34.53
2023-03-17T14:23:09.075Z,34.84
2023-03-17T14:25:38.909Z,33.60
2023-03-17T14:28:14.924Z,33.94
2023-03-17T14:30:55.678Z,34.01
2023-03-17T14:33:38.057Z,33.52
2023-03-17T14:36:11.733Z,33.65
2023-03-17T14:38:54.692Z,33.45
2023-03-17T14:41:25.406Z,32.66
2023-03-17T14:43:57.797Z,32.92
2023-03-17T14:46:29.106Z,32.87
2023-03-17T14:49:18.110Z,33.62
2023-03-17T14:51:45.481Z,34.18
2023-03-17T14:54:25.270Z,33.22
2023-03-17T14:57:00.184Z,33.85
2023-03-17T14:59:56.465Z,33.69
2023-03-17T15:02:35.371Z,33.91
2023-03-17T15:05:17.522Z,35.14
2023-03-17T15:07:44.291Z,33.78
2023-03-17T15:10:31.044Z,34.44
2023-03-17T15:13:03.848Z,34.24
2023-03-17T15:15:38.184Z,34.51
2023-03-17T15:18:14.235Z,34.62
2023-03-17T15:20:44.175Z,34.44
2023-03-17T15:23:29.826Z,33.76
2023-03-17T15:25:57.324Z,34.30
2023-03-17T15:28:31.603Z,34.46
2023-03-17T15:31:13.340Z,34.77
2023-03-17T15:33:42.134Z,34.98
2023-03-17T15:36:31.437Z,34.94
2023-03-17T15:38:59.337Z,35.45
2023-03-17T15:41:26.262Z,34.76
2023-03-17T15:43:53.747Z,33.38
2023-03-17T15:46:31.084Z,31.77
2023-03-17T15:48:58.508Z,31.84
2023-03-17T15:51:25.574Z,32.56
2023-03-17T15:53:52.417Z,32.72
2023-03-17T15:56:21.700Z,33.43
2023-03-17T15:58:51.649Z,34.64
2023-03-17T16:01:19.464Z,35.48
2023-03-17T16:03:47.600Z,36.34
2023-03-17T16:06:17.961Z,37.41
2023-03-17T16:08:45.813Z,37.79
2023-03-17T16:11:25.684Z,38.52
2023-03-17T16:13:52.448Z,38.72
2023-03-17T16:16:36.606Z,39.30
2023-03-17T16:19:06.024Z,39.68
2023-03-17T16:21:32.948Z,40.28
2023-03-17T16:24:00.046Z,40.68
2023-03-17T16:26:27.114Z,40.63
2023-03-17T16:28:54.050Z,40.97
2023-03-17T16:31:31.785Z,41.33
2023-03-17T16:33:58.671Z,41.59
2023-03-17T16:36:28.477Z,41.83
2023-03-17T16:38:55.528Z,42.42
2023-03-17T16:41:27.368Z,42.11
2023-03-17T16:44:00.730Z,42.35
2023-03-17T16:46:34.435Z,42.60
2023-03-17T16:49:02.079Z,42.87
2023-03-17T16:51:28.817Z,42.43
2023-03-17T16:53:55.632Z,43.15
2023-03-17T16:56:24.908Z,45.40
2023-03-17T16:58:51.784Z,46.16
2023-03-17T17:01:24.113Z,46.67
2023-03-17T17:03:51.408Z,47.15
2023-03-17T17:06:19.998Z,47.58
2023-03-17T17:08:48.953Z,47.50
2023-03-17T17:11:18.399Z,47.93
2023-03-17T17:13:47.566Z,49.61
2023-03-17T17:16:31.493Z,50.00
2023-03-17T17:18:59.380Z,51.17
2023-03-17T17:21:27.181Z,51.66
2023-03-17T17:23:55.606Z,51.46
2023-03-17T17:26:23.304Z,51.35
2023-03-17T17:28:50.200Z,51.90
2023-03-17T17:31:17.076Z,51.95
2023-03-17T17:33:43.865Z,52.22
2023-03-17T17:36:16.647Z,51.53
2023-03-17T17:38:44.473Z,51.80
2023-03-17T17:41:12.439Z,53.32
2023-03-17T17:43:40.031Z,54.59
2023-03-17T17:46:19.629Z,54.35
2023-03-17T17:48:47.584Z,54.84
2023-03-17T17:51:14.962Z,54.99
2023-03-17T17:53:42.060Z,56.02
2023-03-17T17:56:15.033Z,56.49
2023-03-17T17:58:41.921Z,57.35
2023-03-17T18:01:13.057Z,57.80
2023-03-17T18:03:42.905Z,57.81
2023-03-17T18:06:10.310Z,58.45
2023-03-17T18:08:37.294Z,58.35
2023-03-17T18:11:04.349Z,58.66
2023-03-17T18:13:31.140Z,58.82
2023-03-17T18:15:58.589Z,59.54
2023-03-17T18:18:25.397Z,59.57
2023-03-17T18:20:53.952Z,59.66
2023-03-17T18:23:21.226Z,60.45
2023-03-17T18:25:47.972Z,61.11
2023-03-17T18:28:14.945Z,61.36
2023-03-17T18:30:43.484Z,61.74
2023-03-17T18:33:17.031Z,62.39
2023-03-17T18:35:47.884Z,62.52
2023-03-17T18:38:14.785Z,63.20
2023-03-17T18:40:42.721Z,63.65
2023-03-17T18:43:09.495Z,63.60
2023-03-17T18:45:36.346Z,63.61
2023-03-17T18:48:03.279Z,64.13
2023-03-17T18:50:30.300Z,64.80
2023-03-17T18:52:57.374Z,65.91
2023-03-17T18:55:24.318Z,66.16
2023-03-17T18:57:51.982Z,67.67
2023-03-17T19:00:19.109Z,68.59
2023-03-17T19:02:46.504Z,67.71
2023-03-17T19:05:14.407Z,68.70
2023-03-17T19:07:42.017Z,68.60
2023-03-17T19:10:12.340Z,67.90
2023-03-17T19:12:39.350Z,69.27
2023-03-17T19:15:08.806Z,70.69
2023-03-17T19:17:35.686Z,71.96
2023-03-17T19:20:02.717Z,70.77
2023-03-17T19:22:29.468Z,72.00
2023-03-17T19:24:56.196Z,72.31
2023-03-17T19:27:22.940Z,73.37
2023-03-17T19:29:49.720Z,72.41
2023-03-17T19:32:17.239Z,73.96
2023-03-17T19:34:44.078Z,74.35
2023-03-17T19:37:11.135Z,74.71
2023-03-17T19:39:37.991Z,73.65
2023-03-17T19:42:04.819Z,73.67
2023-03-17T19:44:31.766Z,73.20
2023-03-17T19:46:58.535Z,72.54
2023-03-17T19:49:26.295Z,76.50
2023-03-17T19:51:53.319Z,76.91
2023-03-17T19:54:23.427Z,76.66
2023-03-17T19:56:50.375Z,78.40
2023-03-17T19:59:17.643Z,78.93
2023-03-17T20:01:44.499Z,79.06
2023-03-17T20:04:14.143Z,78.03
2023-03-17T20:06:40.946Z,77.53
2023-03-17T20:09:09.032Z,77.42
2023-03-17T20:11:36.320Z,77.98
2023-03-17T20:14:03.743Z,77.16
2023-03-17T20:16:33.732Z,77.01
2023-03-17T20:19:01.531Z,76.93
2023-03-17T20:21:28.532Z,79.12
2023-03-17T20:23:56.389Z,77.98
2023-03-17T20:26:23.479Z,80.95
2023-03-17T20:28:50.288Z,81.30
2023-03-17T20:31:18.076Z,81.17
2023-03-17T20:33:44.899Z,79.14
2023-03-17T20:36:12.992Z,79.05
2023-03-17T20:38:40.691Z,78.64
2023-03-17T20:41:13.911Z,79.09
2023-03-17T20:43:41.826Z,80.74
2023-03-17T20:46:17.573Z,81.34
2023-03-17T20:48:47.800Z,79.90
2023-03-17T20:51:17.313Z,81.63
2023-03-17T20:53:46.372Z,80.20
2023-03-17T20:56:15.957Z,80.21
2023-03-17T20:58:45.467Z,81.90
2023-03-17T21:01:13.003Z,81.75
2023-03-17T21:03:41.459Z,83.97
2023-03-17T21:06:09.764Z,84.55
2023-03-17T21:08:37.843Z,82.89
2023-03-17T21:11:08.085Z,83.71
2023-03-17T21:13:35.360Z,83.04
2023-03-17T21:16:02.797Z,85.06
2023-03-17T21:18:29.828Z,85.29
2023-03-17T21:20:56.886Z,84.55
2023-03-17T21:23:23.838Z,82.83
2023-03-17T21:25:56.072Z,83.39
2023-03-17T21:28:23.611Z,85.18
2023-03-17T21:30:50.502Z,86.33
2023-03-17T21:33:17.266Z,87.33
2023-03-17T21:35:44.099Z,87.49
2023-03-17T21:38:11.151Z,86.18
2023-03-17T21:40:37.879Z,87.49
2023-03-17T21:43:05.811Z,87.89
2023-03-17T21:45:32.750Z,88.18
2023-03-17T21:47:59.544Z,88.09
2023-03-17T21:50:27.160Z,89.50
2023-03-17T21:52:53.877Z,89.84
2023-03-17T21:55:20.667Z,91.28
2023-03-17T21:57:47.386Z,90.79
2023-03-17T22:00:14.727Z,90.65
2023-03-17T22:02:42.813Z,91.32
2023-03-17T22:05:10.569Z,91.48
2023-03-17T22:07:38.779Z,91.07
2023-03-17T22:10:08.777Z,90.78
2023-03-17T22:12:36.574Z,91.48
2023-03-17T22:15:04.496Z,91.09
2023-03-17T22:17:31.827Z,91.15
2023-03-17T22:19:58.715Z,91.70
2023-03-17T22:22:25.500Z,91.39
2023-03-17T22:24:52.218Z,91.06
2023-03-17T22:27:19.385Z,91.52
2023-03-17T22:29:46.776Z,92.03
2023-03-17T22:32:14.132Z,91.94
2023-03-17T22:34:41.088Z,91.72
2023-03-17T22:37:08.175Z,92.23
2023-03-17T22:39:34.975Z,91.44
2023-03-17T22:42:02.211Z,90.92
2023-03-17T22:44:29.025Z,90.31
2023-03-17T22:46:56.279Z,90.84
2023-03-17T22:49:23.923Z,91.25
2023-03-17T22:51:50.769Z,91.25
2023-03-17T22:54:18.807Z,91.93
2023-03-17T22:56:45.897Z,91.19
2023-03-17T22:59:12.722Z,91.16
2023-03-17T23:01:39.789Z,92.22
2023-03-17T23:04:07.944Z,91.97
2023-03-17T23:06:36.197Z,91.55
2023-03-17T23:09:03.156Z,91.37
2023-03-17T23:11:29.940Z,91.41
2023-03-17T23:13:57.527Z,91.09
2023-03-17T23:16:24.971Z,92.42
2023-03-17T23:18:51.800Z,92.68
2023-03-17T23:21:33.395Z,93.90
2023-03-17T23:24:01.849Z,93.43
2023-03-17T23:26:29.178Z,92.73
2023-03-17T23:28:56.683Z,93.81
2023-03-17T23:31:23.687Z,94.28
2023-03-17T23:33:50.733Z,93.82
2023-03-17T23:36:18.558Z,93.85
2023-03-17T23:38:45.816Z,93.88
2023-03-17T23:41:14.635Z,94.20
2023-03-17T23:43:42.001Z,93.39
2023-03-17T23:46:08.928Z,94.08
2023-03-17T23:48:37.010Z,94.84
2023-03-17T23:51:04.068Z,94.83
2023-03-17T23:53:31.575Z,95.91
2023-03-17T23:55:59.014Z,95.85
2023-03-17T23:58:27.080Z,97.17
